»·PEaware :: N739WR KEMT-CL46

N739WR :: KEMT-CL46

FLIGHT INFORMATION

Flight Status: Arrived
Operator: Privately registered:
United States
More flights under this callsign
Pilot: Kinlok P. (11459)
Aircraft: CESSNA 172 SKYHAWK
(C172)
More flights by this aircraft type
Origin: KEMT El Monte
United States
Destination: CL46 Quail Lake Sky Park
Canada
More flights between these airports :: More routes between these airports
Route: +
File this flight plan on PilotEdge
Remarks:
Altitude:
(Current/Filed)
0ft
Speed:
(Current/Filed)
0kts
Departed: 21-Aug-19 02:09 PM
Arrived: 21-Aug-19 02:50 PM
Distance/Time
Traveled:
54nm/0:41
Distance/Time
To Go:
Arrived

Flight Plot

Page will automatically refresh every two minutes.

Flight plan parsing failed; only flown route is shown


Map Options




Map Legend


Flown Route
Filed Route
Departure Airport
Arrival Airport
Navaid (VOR, NDB)
Fix

Horizontal Profiles

Position Reports

Time Latitude Longitude Heading Altitude Ground
Speed
21-Aug-19 14:06 34.086522 -118.033896 24 287ft 0kts
21-Aug-19 14:07 34.090313 -118.031750 25 295ft 18kts
21-Aug-19 14:08 34.087490 -118.034004 206 318ft 64kts
21-Aug-19 14:09 34.078851 -118.048385 319 1090ft 87kts
21-Aug-19 14:10 34.101216 -118.049683 326 1962ft 83kts
21-Aug-19 14:11 34.118937 -118.066504 309 2793ft 81kts
21-Aug-19 14:12 34.137378 -118.082979 315 3584ft 84kts
21-Aug-19 14:13 34.154216 -118.102003 305 4364ft 83kts
21-Aug-19 14:14 34.172970 -118.120098 299 4973ft 96kts
21-Aug-19 14:15 34.187880 -118.146779 301 5600ft 96kts
21-Aug-19 14:16 34.206978 -118.166418 316 6341ft 88kts
21-Aug-19 14:17 34.229798 -118.189219 318 6428ft 118kts
21-Aug-19 14:18 34.255209 -118.214564 318 6429ft 124kts
21-Aug-19 14:19 34.282039 -118.241407 317 6428ft 128kts
21-Aug-19 14:20 34.308742 -118.268224 317 6489ft 121kts
21-Aug-19 14:21 34.335069 -118.294664 317 6491ft 124kts
21-Aug-19 14:22 34.361865 -118.321592 318 6491ft 125kts
21-Aug-19 14:23 34.388714 -118.348597 318 6491ft 126kts
21-Aug-19 14:24 34.415693 -118.375785 318 6491ft 126kts
21-Aug-19 14:25 34.442393 -118.402662 317 6490ft 123kts
21-Aug-19 14:26 34.468495 -118.428999 317 6491ft 122kts
21-Aug-19 14:27 34.494594 -118.455336 317 6491ft 122kts
21-Aug-19 14:28 34.520660 -118.481663 317 6491ft 122kts
21-Aug-19 14:29 34.546664 -118.507948 317 6491ft 122kts
21-Aug-19 14:30 34.571216 -118.532742 315 6667ft 108kts
21-Aug-19 14:31 34.594865 -118.556729 316 6679ft 110kts
21-Aug-19 14:32 34.617039 -118.579194 315 6684ft 105kts
21-Aug-19 14:33 34.640094 -118.602575 315 6683ft 109kts
21-Aug-19 14:34 34.659394 -118.622212 315 6728ft 106kts
21-Aug-19 14:35 34.678063 -118.641084 313 7016ft 74kts
21-Aug-19 14:36 34.688652 -118.649492 359 6907ft 61kts
21-Aug-19 14:37 34.687679 -118.648216 277 5184ft 71kts
21-Aug-19 14:38 34.678848 -118.644901 181 4473ft 105kts
21-Aug-19 14:39 34.686755 -118.636634 291 4868ft 83kts
21-Aug-19 14:40 34.701664 -118.663176 311 5187ft 80kts
21-Aug-19 14:41 34.714856 -118.678160 311 5969ft 67kts
21-Aug-19 14:42 34.734221 -118.688317 348 5609ft 109kts
21-Aug-19 14:43 34.760398 -118.696436 326 4914ft 99kts
21-Aug-19 14:44 34.773565 -118.724234 282 3995ft 99kts
21-Aug-19 14:45 34.764417 -118.732241 58 3872ft 80kts
21-Aug-19 14:46 34.768580 -118.743344 271 3756ft 84kts
21-Aug-19 14:47 34.772159 -118.767516 166 4120ft 74kts
21-Aug-19 14:48 34.771318 -118.731556 92 3579ft 110kts
21-Aug-19 14:49 34.767830 -118.732973 289 3349ft 21kts
21-Aug-19 14:50 34.768421 -118.736800 288 3348ft 13kts
21-Aug-19 14:51 34.767339 -118.736105 3 3354ft 8kts
21-Aug-19 14:52 34.767890 -118.736267 55 3353ft 0kts
21-Aug-19 14:53 34.767890 -118.736267 55 3353ft 0kts
21-Aug-19 14:54 34.767890 -118.736267 55 3353ft 0kts
21-Aug-19 14:55 34.767890 -118.736267 55 3353ft 0kts
21-Aug-19 14:56 34.767890 -118.736267 55 3353ft 0kts
21-Aug-19 14:57 34.767890 -118.736267 55 3353ft 0kts
21-Aug-19 14:58 34.767890 -118.736267 55 3353ft 0kts
21-Aug-19 14:59 34.767890 -118.736267 55 3353ft 0kts
21-Aug-19 15:00 34.767890 -118.736267 55 3353ft 0kts

Navigation Log

Ident Type
Flight plan parsing failed, navigation log unavailable